^^
WesterhopeWX Station Historical Data
 
Daily Summary for May 27, 2018 Units:  Metric    English   Both
Daily Weekly Monthly Yearly Custom
  Current: High: Low: Average:
Temperature: 19.8 °C 20.0 °C 10.0 °C 14.4 °C
Dew Point: 13.5 °C 13.7 °C 8.9 °C 10.9 °C
Humidity: 67% 93% 64% 81%
Wind Speed: 1.4km/h 11.1km/h 0.0km/h 4km/h
Wind Gust: 9.7km/h 17.7km/h - -
WindENE - - ENE
Pressure: 1019.5 hPa 1024.9 hPa 1019.5 hPa -
Precipitation: 0.0 mm      
Historical Graphs
 
 
Tabular Data for May 27, 2018
Time Temperature Dew Point Pressure Wind Wind Speed Wind Gust Humidity Rainfall Rate (Hourly) solar
00:03 11.0 °C 9.4 °C 1024.9 hPa NNE 7.9 km/h 8.0 km/h 90% 0.0 mm 0.0 W/m2
00:09 11.0 °C 9.4 °C 1024.9 hPa North 7.9 km/h 9.7 km/h 90% 0.0 mm 0.0 W/m2
00:14 11.0 °C 9.4 °C 1024.9 hPa North 11.1 km/h 11.3 km/h 90% 0.0 mm 0.0 W/m2
00:19 10.9 °C 9.3 °C 1024.9 hPa NE 3.2 km/h 9.7 km/h 90% 0.0 mm 0.0 W/m2
00:24 10.9 °C 9.3 °C 1024.6 hPa NNE 7.9 km/h 14.5 km/h 90% 0.0 mm 0.0 W/m2
00:29 10.9 °C 9.3 °C 1024.6 hPa ENE 6.4 km/h 12.9 km/h 90% 0.0 mm 0.0 W/m2
00:35 10.9 °C 9.3 °C 1024.6 hPa NE 1.4 km/h 6.4 km/h 90% 0.0 mm 0.0 W/m2
00:40 10.9 °C 9.3 °C 1024.6 hPa NNE 4.7 km/h 8.0 km/h 90% 0.0 mm 0.0 W/m2
00:45 10.9 °C 9.3 °C 1024.6 hPa ENE 7.9 km/h 8.0 km/h 90% 0.0 mm 0.0 W/m2
00:50 10.9 °C 9.3 °C 1024.6 hPa NE 7.9 km/h 9.7 km/h 90% 0.0 mm 0.0 W/m2
00:55 10.9 °C 9.3 °C 1024.3 hPa NE 7.9 km/h 8.0 km/h 90% 0.0 mm 0.0 W/m2
01:00 10.8 °C 9.4 °C 1024.3 hPa NNE 4.7 km/h 9.7 km/h 91% 0.0 mm 0.0 W/m2
01:06 10.8 °C 9.4 °C 1024.3 hPa NE 3.2 km/h 6.4 km/h 91% 0.0 mm 0.0 W/m2
01:11 10.8 °C 9.4 °C 1023.9 hPa North 4.7 km/h 8.0 km/h 91% 0.0 mm 0.0 W/m2
01:16 10.8 °C 9.4 °C 1023.9 hPa North 6.4 km/h 8.0 km/h 91% 0.0 mm 0.0 W/m2
01:21 10.8 °C 9.4 °C 1023.9 hPa NNE 3.2 km/h 6.4 km/h 91% 0.0 mm 0.0 W/m2
01:26 10.8 °C 9.4 °C 1023.9 hPa NE 4.7 km/h 6.4 km/h 91% 0.0 mm 0.0 W/m2
01:31 10.8 °C 9.4 °C 1023.9 hPa North 3.2 km/h 12.9 km/h 91% 0.0 mm 0.0 W/m2
01:37 10.7 °C 9.3 °C 1023.9 hPa NE 1.4 km/h 14.5 km/h 91% 0.0 mm 0.0 W/m2
01:42 10.7 °C 9.3 °C 1023.9 hPa NNE 11.1 km/h 11.3 km/h 91% 0.0 mm 0.0 W/m2
01:47 10.7 °C 9.3 °C 1023.6 hPa NNE 1.4 km/h 4.8 km/h 91% 0.0 mm 0.0 W/m2
01:52 10.7 °C 9.5 °C 1023.6 hPa NNE 4.7 km/h 8.0 km/h 92% 0.0 mm 0.0 W/m2
01:57 10.7 °C 9.5 °C 1023.6 hPa Calm   9.7 km/h 92% 0.0 mm 0.0 W/m2
02:02 10.6 °C 9.4 °C 1023.6 hPa NE 4.7 km/h 8.0 km/h 92% 0.0 mm 0.0 W/m2
02:07 10.6 °C 9.4 °C 1023.6 hPa NE 3.2 km/h 6.4 km/h 92% 0.0 mm 0.0 W/m2
02:13 10.6 °C 9.4 °C 1023.6 hPa NNE 3.2 km/h 8.0 km/h 92% 0.0 mm 0.0 W/m2
02:18 10.6 °C 9.4 °C 1023.6 hPa East 1.4 km/h 6.4 km/h 92% 0.0 mm 0.0 W/m2
02:23 10.6 °C 9.4 °C 1023.2 hPa North 1.4 km/h 8.0 km/h 92% 0.0 mm 0.0 W/m2
02:28 10.5 °C 9.3 °C 1023.2 hPa NNE 3.2 km/h 14.5 km/h 92% 0.0 mm 0.0 W/m2
02:33 10.5 °C 9.3 °C 1023.2 hPa North 4.7 km/h 6.4 km/h 92% 0.0 mm 0.0 W/m2
02:38 10.5 °C 9.3 °C 1023.2 hPa NNE 4.7 km/h 11.3 km/h 92% 0.0 mm 0.0 W/m2
02:43 10.5 °C 9.3 °C 1022.9 hPa North 1.4 km/h 6.4 km/h 92% 0.0 mm 0.0 W/m2
02:49 10.5 °C 9.3 °C 1022.9 hPa NNE 7.9 km/h 11.3 km/h 92% 0.0 mm 0.0 W/m2
02:54 10.4 °C 9.2 °C 1022.9 hPa ENE 3.2 km/h 8.0 km/h 92% 0.0 mm 0.0 W/m2
02:59 10.4 °C 9.2 °C 1022.9 hPa NE 4.7 km/h 14.5 km/h 92% 0.0 mm 0.0 W/m2
03:04 10.4 °C 9.2 °C 1022.9 hPa ENE 1.4 km/h 6.4 km/h 92% 0.0 mm 0.0 W/m2
03:09 10.4 °C 9.2 °C 1022.9 hPa North 1.4 km/h 11.3 km/h 92% 0.0 mm 0.0 W/m2
03:15 10.4 °C 9.3 °C 1022.9 hPa NNE 4.7 km/h 8.0 km/h 93% 0.0 mm 0.0 W/m2
03:20 10.4 °C 9.3 °C 1022.9 hPa ENE 3.2 km/h 9.7 km/h 93% 0.0 mm 0.0 W/m2
03:25 10.4 °C 9.3 °C 1022.9 hPa North 7.9 km/h 12.9 km/h 93% 0.0 mm 0.0 W/m2
03:30 10.4 °C 9.3 °C 1022.9 hPa NE 1.4 km/h 9.7 km/h 93% 0.0 mm 0.0 W/m2
03:35 10.4 °C 9.3 °C 1022.9 hPa ENE 6.4 km/h 6.4 km/h 93% 0.0 mm 0.0 W/m2
03:40 10.4 °C 9.3 °C 1022.9 hPa NNE 3.2 km/h 8.0 km/h 93% 0.0 mm 0.0 W/m2
03:45 10.4 °C 9.3 °C 1022.9 hPa ENE 4.7 km/h 9.7 km/h 93% 0.0 mm 0.0 W/m2
03:51 10.4 °C 9.3 °C 1022.9 hPa NE 4.7 km/h 6.4 km/h 93% 0.0 mm 0.0 W/m2
03:56 10.4 °C 9.3 °C 1022.9 hPa NE 4.7 km/h 4.8 km/h 93% 0.0 mm 0.0 W/m2
04:01 10.4 °C 9.3 °C 1022.9 hPa NNE 4.7 km/h 9.7 km/h 93% 0.0 mm 0.0 W/m2
04:06 10.5 °C 9.4 °C 1022.9 hPa NE 3.2 km/h 6.4 km/h 93% 0.0 mm 0.0 W/m2
04:11 10.5 °C 9.4 °C 1022.9 hPa ENE 3.2 km/h 6.4 km/h 93% 0.0 mm 0.0 W/m2
04:16 10.5 °C 9.4 °C 1022.9 hPa East 1.4 km/h 6.4 km/h 93% 0.0 mm 0.0 W/m2
04:21 10.4 °C 9.3 °C 1022.9 hPa ENE 1.4 km/h 3.2 km/h 93% 0.0 mm 0.0 W/m2
04:27 10.4 °C 9.3 °C 1022.9 hPa ENE 1.4 km/h 4.8 km/h 93% 0.0 mm 0.0 W/m2
04:32 10.4 °C 9.3 °C 1022.9 hPa NE 1.4 km/h 4.8 km/h 93% 0.0 mm 0.0 W/m2
04:37 10.4 °C 9.3 °C 1022.6 hPa ENE 1.4 km/h 8.0 km/h 93% 0.0 mm 0.0 W/m2
04:42 10.4 °C 9.3 °C 1022.6 hPa Calm   3.2 km/h 93% 0.0 mm 5.0 W/m2
04:47 10.3 °C 9.2 °C 1022.6 hPa NE 4.7 km/h 8.0 km/h 93% 0.0 mm 5.0 W/m2
04:52 10.3 °C 9.2 °C 1022.6 hPa NNE 4.7 km/h 6.4 km/h 93% 0.0 mm 9.0 W/m2
04:57 10.2 °C 9.1 °C 1022.6 hPa ENE 1.4 km/h 4.8 km/h 93% 0.0 mm 11.0 W/m2
05:02 10.2 °C 9.1 °C 1022.6 hPa NE 3.2 km/h 3.2 km/h 93% 0.0 mm 14.0 W/m2
05:07 10.1 °C 9.0 °C 1022.6 hPa North 1.4 km/h 3.2 km/h 93% 0.0 mm 16.0 W/m2
05:13 10.1 °C 9.0 °C 1022.6 hPa Calm   1.6 km/h 93% 0.0 mm 18.0 W/m2
05:18 10.1 °C 9.0 °C 1022.6 hPa NE 3.2 km/h 4.8 km/h 93% 0.0 mm 23.0 W/m2
05:23 10.0 °C 8.9 °C 1022.9 hPa Calm   3.2 km/h 93% 0.0 mm 28.0 W/m2
05:28 10.1 °C 9.0 °C 1022.9 hPa Calm   3.2 km/h 93% 0.0 mm 33.0 W/m2
05:33 10.1 °C 9.0 °C 1022.6 hPa Calm   4.8 km/h 93% 0.0 mm 33.0 W/m2
05:38 10.1 °C 9.0 °C 1022.6 hPa NE 1.4 km/h 3.2 km/h 93% 0.0 mm 40.0 W/m2
05:43 10.1 °C 9.0 °C 1022.6 hPa NE 6.4 km/h 6.4 km/h 93% 0.0 mm 42.0 W/m2
05:48 10.1 °C 9.0 °C 1022.6 hPa Calm   3.2 km/h 93% 0.0 mm 44.0 W/m2
05:53 10.1 °C 9.0 °C 1022.6 hPa NNE 1.4 km/h 3.2 km/h 93% 0.0 mm 53.0 W/m2
05:58 10.1 °C 9.0 °C 1022.6 hPa NNE 1.4 km/h 1.6 km/h 93% 0.0 mm 74.0 W/m2
06:03 10.2 °C 9.1 °C 1022.6 hPa Calm   3.2 km/h 93% 0.0 mm 70.0 W/m2
06:09 10.3 °C 9.2 °C 1022.6 hPa Calm   3.2 km/h 93% 0.0 mm 77.0 W/m2
06:14 10.4 °C 9.3 °C 1022.6 hPa Calm   1.6 km/h 93% 0.0 mm 93.0 W/m2
06:19 10.5 °C 9.4 °C 1022.6 hPa North 3.2 km/h 3.2 km/h 93% 0.0 mm 97.0 W/m2
06:24 10.6 °C 9.5 °C 1022.6 hPa NNE 1.4 km/h 3.2 km/h 93% 0.0 mm 100.0 W/m2
06:29 10.6 °C 9.5 °C 1022.6 hPa Calm   3.2 km/h 93% 0.0 mm 118.0 W/m2
06:34 10.8 °C 9.7 °C 1022.6 hPa Calm   3.2 km/h 93% 0.0 mm 139.0 W/m2
06:39 10.9 °C 9.8 °C 1022.6 hPa NNE 3.2 km/h 4.8 km/h 93% 0.0 mm 130.0 W/m2
06:44 11.1 °C 10.0 °C 1022.6 hPa Calm   4.8 km/h 93% 0.0 mm 76.0 W/m2
06:49 11.1 °C 9.8 °C 1022.2 hPa NE 1.4 km/h 3.2 km/h 92% 0.0 mm 155.0 W/m2
06:54 11.2 °C 9.9 °C 1022.2 hPa NNE 1.4 km/h 6.4 km/h 92% 0.0 mm 169.0 W/m2
06:59 11.4 °C 10.1 °C 1022.2 hPa NNE 1.4 km/h 4.8 km/h 92% 0.0 mm 185.0 W/m2
07:04 11.6 °C 10.3 °C 1022.2 hPa NNE 3.2 km/h 8.0 km/h 92% 0.0 mm 200.0 W/m2
07:09 11.8 °C 10.4 °C 1021.9 hPa ENE 3.2 km/h 9.7 km/h 91% 0.0 mm 206.0 W/m2
07:14 12.0 °C 10.4 °C 1021.9 hPa ENE 3.2 km/h 8.0 km/h 90% 0.0 mm 195.0 W/m2
07:20 12.2 °C 10.6 °C 1021.9 hPa North 3.2 km/h 4.8 km/h 90% 0.0 mm 209.0 W/m2
07:25 12.4 °C 10.6 °C 1021.9 hPa North 3.2 km/h 11.3 km/h 89% 0.0 mm 223.0 W/m2
07:30 12.6 °C 10.7 °C 1021.9 hPa East 3.2 km/h 8.0 km/h 88% 0.0 mm 250.0 W/m2
07:35 12.9 °C 10.8 °C 1021.9 hPa NNW 4.7 km/h 6.4 km/h 87% 0.0 mm 248.0 W/m2
07:40 13.1 °C 10.8 °C 1022.2 hPa NNW 4.7 km/h 12.9 km/h 86% 0.0 mm 294.0 W/m2
07:45 13.4 °C 10.9 °C 1021.9 hPa ENE 3.2 km/h 4.8 km/h 85% 0.0 mm 281.0 W/m2
07:50 13.6 °C 10.9 °C 1021.9 hPa ENE 1.4 km/h 8.0 km/h 84% 0.0 mm 269.0 W/m2
07:55 14.0 °C 11.3 °C 1021.9 hPa NE 1.4 km/h 8.0 km/h 84% 0.0 mm 234.0 W/m2
08:01 14.3 °C 11.3 °C 1021.9 hPa NE 3.2 km/h 6.4 km/h 82% 0.0 mm 211.0 W/m2
08:06 14.3 °C 10.9 °C 1021.9 hPa East 3.2 km/h 12.9 km/h 80% 0.0 mm 244.0 W/m2
08:11 14.5 °C 11.1 °C 1021.9 hPa NNE 3.2 km/h 9.7 km/h 80% 0.0 mm 292.0 W/m2
08:16 14.7 °C 11.1 °C 1021.9 hPa ENE 3.2 km/h 8.0 km/h 79% 0.0 mm 339.0 W/m2
08:21 14.9 °C 11.3 °C 1021.9 hPa ENE 3.2 km/h 6.4 km/h 79% 0.0 mm 371.0 W/m2
08:26 15.1 °C 11.3 °C 1021.9 hPa Calm   4.8 km/h 78% 0.0 mm 401.0 W/m2
08:31 15.4 °C 11.2 °C 1021.9 hPa ENE 4.7 km/h 8.0 km/h 76% 0.0 mm 418.0 W/m2
08:36 15.5 °C 11.3 °C 1021.9 hPa ENE 6.4 km/h 9.7 km/h 76% 0.0 mm 432.0 W/m2
08:42 15.7 °C 11.3 °C 1021.9 hPa East 3.2 km/h 6.4 km/h 75% 0.0 mm 443.0 W/m2
08:47 15.7 °C 11.3 °C 1021.9 hPa ENE 3.2 km/h 6.4 km/h 75% 0.0 mm 457.0 W/m2
08:52 15.8 °C 11.2 °C 1021.9 hPa NE 6.4 km/h 9.7 km/h 74% 0.0 mm 434.0 W/m2
08:57 15.8 °C 11.2 °C 1021.6 hPa North 4.7 km/h 8.0 km/h 74% 0.0 mm 485.0 W/m2
09:02 15.8 °C 11.2 °C 1021.9 hPa East 4.7 km/h 6.4 km/h 74% 0.0 mm 501.0 W/m2
09:07 15.7 °C 11.1 °C 1021.9 hPa North 9.7 km/h 9.7 km/h 74% 0.0 mm 515.0 W/m2
09:13 16.0 °C 11.2 °C 1021.9 hPa NNE 1.4 km/h 6.4 km/h 73% 0.0 mm 522.0 W/m2
09:18 15.9 °C 11.1 °C 1021.6 hPa NE 3.2 km/h 12.9 km/h 73% 0.0 mm 527.0 W/m2
09:23 16.2 °C 11.4 °C 1021.6 hPa East 9.7 km/h 9.7 km/h 73% 0.0 mm 545.0 W/m2
09:28 16.3 °C 11.2 °C 1021.9 hPa ENE 4.7 km/h 9.7 km/h 72% 0.0 mm 561.0 W/m2
09:34 16.3 °C 11.2 °C 1021.9 hPa NNE 3.2 km/h 4.8 km/h 72% 0.0 mm 285.0 W/m2
09:39 16.8 °C 11.7 °C 1021.9 hPa NE 4.7 km/h 6.4 km/h 72% 0.0 mm 151.0 W/m2
09:44 17.0 °C 11.5 °C 1021.9 hPa East 4.7 km/h 9.7 km/h 70% 0.0 mm 88.0 W/m2
09:49 17.0 °C 11.3 °C 1021.9 hPa NE 4.7 km/h 12.9 km/h 69% 0.0 mm 139.0 W/m2
09:54 16.9 °C 11.4 °C 1021.6 hPa North 7.9 km/h 8.0 km/h 70% 0.0 mm 610.0 W/m2
10:00 16.7 °C 11.2 °C 1021.6 hPa NNE 6.4 km/h 9.7 km/h 70% 0.0 mm 617.0 W/m2
10:05 16.7 °C 11.6 °C 1021.6 hPa Calm   8.0 km/h 72% 0.0 mm 621.0 W/m2
10:10 16.7 °C 11.2 °C 1021.6 hPa NE 4.7 km/h 9.7 km/h 70% 0.0 mm 635.0 W/m2
10:15 16.8 °C 11.3 °C 1021.6 hPa ENE 4.7 km/h 11.3 km/h 70% 0.0 mm 647.0 W/m2
10:20 16.8 °C 11.7 °C 1021.6 hPa ENE 6.4 km/h 9.7 km/h 72% 0.0 mm 650.0 W/m2
10:25 16.7 °C 11.4 °C 1021.6 hPa ENE 3.2 km/h 11.3 km/h 71% 0.0 mm 663.0 W/m2
10:31 16.9 °C 11.4 °C 1021.6 hPa NE 7.9 km/h 8.0 km/h 70% 0.0 mm 677.0 W/m2
10:36 16.9 °C 11.4 °C 1021.6 hPa ENE 4.7 km/h 11.3 km/h 70% 0.0 mm 687.0 W/m2
10:41 17.2 °C 11.9 °C 1021.6 hPa NE 1.4 km/h 6.4 km/h 71% 0.0 mm 622.0 W/m2
10:46 17.1 °C 11.6 °C 1021.2 hPa NE 7.9 km/h 12.9 km/h 70% 0.0 mm 710.0 W/m2
10:51 17.3 °C 12.0 °C 1021.2 hPa East 1.4 km/h 6.4 km/h 71% 0.0 mm 710.0 W/m2
10:56 17.3 °C 12.0 °C 1021.2 hPa NE 4.7 km/h 9.7 km/h 71% 0.0 mm 413.0 W/m2
11:02 17.3 °C 11.8 °C 1021.2 hPa NE 4.7 km/h 8.0 km/h 70% 0.0 mm 413.0 W/m2
11:07 17.2 °C 11.9 °C 1021.2 hPa ENE 3.2 km/h 14.5 km/h 71% 0.0 mm 647.0 W/m2
11:12 17.4 °C 12.1 °C 1021.2 hPa ENE 3.2 km/h 12.9 km/h 71% 0.0 mm 86.0 W/m2
11:14 17.6 °C 12.1 °C 1021.2 hPa ENE 3.2 km/h 6.4 km/h 70% 0.0 mm 90.0 W/m2
11:19 17.6 °C 11.6 °C 1021.2 hPa ENE 7.9 km/h 17.7 km/h 68% 0.0 mm 105.0 W/m2
11:24 17.5 °C 12.0 °C 1021.2 hPa NE 6.4 km/h 9.7 km/h 70% 0.0 mm 86.0 W/m2
11:30 17.4 °C 11.9 °C 1021.2 hPa ENE 4.7 km/h 14.5 km/h 70% 0.0 mm 677.0 W/m2
11:35 17.4 °C 12.1 °C 1021.2 hPa ENE 3.2 km/h 9.7 km/h 71% 0.0 mm 218.0 W/m2
11:40 17.8 °C 12.3 °C 1021.2 hPa ENE 1.4 km/h 11.3 km/h 70% 0.0 mm 95.0 W/m2
11:45 17.6 °C 12.1 °C 1021.2 hPa ENE 3.2 km/h 11.3 km/h 70% 0.0 mm 105.0 W/m2
11:50 17.8 °C 12.3 °C 1021.2 hPa NNE 6.4 km/h 8.0 km/h 70% 0.0 mm 105.0 W/m2
11:55 17.9 °C 12.1 °C 1021.2 hPa ESE 6.4 km/h 12.9 km/h 69% 0.0 mm 320.0 W/m2
12:01 18.0 °C 12.4 °C 1021.2 hPa East 9.7 km/h 16.1 km/h 70% 0.0 mm 798.0 W/m2
12:06 18.2 °C 12.4 °C 1021.2 hPa NE 1.4 km/h 6.4 km/h 69% 0.0 mm 503.0 W/m2
12:11 18.2 °C 12.2 °C 1021.2 hPa SE 4.7 km/h 9.7 km/h 68% 0.0 mm 86.0 W/m2
12:16 18.1 °C 12.3 °C 1021.2 hPa NE 3.2 km/h 4.8 km/h 69% 0.0 mm 81.0 W/m2
12:21 18.0 °C 12.4 °C 1021.2 hPa NE 7.9 km/h 8.0 km/h 70% 0.0 mm 174.0 W/m2
12:26 17.8 °C 12.0 °C 1020.9 hPa ENE 7.9 km/h 14.5 km/h 69% 0.0 mm 132.0 W/m2
12:31 17.8 °C 12.3 °C 1020.9 hPa East 4.7 km/h 12.9 km/h 70% 0.0 mm 98.0 W/m2
12:37 17.7 °C 12.2 °C 1020.9 hPa East 1.4 km/h 8.0 km/h 70% 0.0 mm 512.0 W/m2
12:42 17.7 °C 12.2 °C 1020.9 hPa ENE 6.4 km/h 12.9 km/h 70% 0.0 mm 84.0 W/m2
12:47 17.7 °C 12.6 °C 1020.9 hPa NNE 6.4 km/h 8.0 km/h 72% 0.0 mm 153.0 W/m2
12:52 17.8 °C 12.5 °C 1020.9 hPa East 4.7 km/h 9.7 km/h 71% 0.0 mm 97.0 W/m2
12:56 17.9 °C 12.6 °C 1020.5 hPa East 1.4 km/h 6.4 km/h 71% 0.0 mm 97.0 W/m2
13:01 17.9 °C 12.4 °C 1020.5 hPa East 4.7 km/h 9.7 km/h 70% 0.0 mm 838.0 W/m2
13:06 18.2 °C 12.6 °C 1020.5 hPa North 6.4 km/h 17.7 km/h 70% 0.0 mm 842.0 W/m2
13:11 17.8 °C 12.3 °C 1020.5 hPa ENE 4.7 km/h 11.3 km/h 70% 0.0 mm 840.0 W/m2
13:16 17.9 °C 12.4 °C 1020.5 hPa ESE 3.2 km/h 17.7 km/h 70% 0.0 mm 844.0 W/m2
13:21 18.1 °C 12.3 °C 1020.5 hPa North 3.2 km/h 11.3 km/h 69% 0.0 mm 846.0 W/m2
13:26 17.9 °C 12.1 °C 1020.5 hPa ENE 6.4 km/h 16.1 km/h 69% 0.0 mm 846.0 W/m2
13:31 18.3 °C 12.7 °C 1020.2 hPa ENE 1.4 km/h 9.7 km/h 70% 0.0 mm 846.0 W/m2
13:37 18.4 °C 12.4 °C 1020.2 hPa ENE 9.7 km/h 9.7 km/h 68% 0.0 mm 830.0 W/m2
13:42 18.3 °C 12.5 °C 1020.2 hPa SE 3.2 km/h 8.0 km/h 69% 0.0 mm 838.0 W/m2
13:47 18.5 °C 12.9 °C 1020.2 hPa ENE 3.2 km/h 11.3 km/h 70% 0.0 mm 840.0 W/m2
13:52 18.4 °C 12.6 °C 1020.2 hPa NE 4.7 km/h 6.4 km/h 69% 0.0 mm 838.0 W/m2
13:57 18.8 °C 13.0 °C 1020.2 hPa ESE 3.2 km/h 6.4 km/h 69% 0.0 mm 833.0 W/m2
14:00 19.2 °C 12.9 °C 1020.2 hPa NNE 7.9 km/h 9.7 km/h 67% 0.0 mm 835.0 W/m2
14:05 19.1 °C 13.3 °C 1019.9 hPa East 1.4 km/h 12.9 km/h 69% 0.0 mm 833.0 W/m2
14:10 19.4 °C 13.1 °C 1019.9 hPa NNE 6.4 km/h 8.0 km/h 67% 0.0 mm 830.0 W/m2
14:15 19.4 °C 13.1 °C 1019.9 hPa ESE 9.7 km/h 11.3 km/h 67% 0.0 mm 828.0 W/m2
14:20 18.9 °C 12.9 °C 1019.9 hPa East 11.1 km/h 12.9 km/h 68% 0.0 mm 826.0 W/m2
14:25 19.0 °C 13.0 °C 1019.9 hPa ENE 6.4 km/h 9.7 km/h 68% 0.0 mm 819.0 W/m2
14:30 19.2 °C 13.4 °C 1019.9 hPa East 6.4 km/h 11.3 km/h 69% 0.0 mm 814.0 W/m2
14:35 19.3 °C 13.7 °C 1019.9 hPa ENE 6.4 km/h 8.0 km/h 70% 0.0 mm 812.0 W/m2
14:41 19.3 °C 13.2 °C 1019.9 hPa North 4.7 km/h 16.1 km/h 68% 0.0 mm 809.0 W/m2
14:46 19.3 °C 13.2 °C 1019.9 hPa East 3.2 km/h 9.7 km/h 68% 0.0 mm 802.0 W/m2
14:51 19.1 °C 13.3 °C 1019.9 hPa SE 1.4 km/h 16.1 km/h 69% 0.0 mm 795.0 W/m2
14:56 18.8 °C 13.0 °C 1019.9 hPa NE 4.7 km/h 8.0 km/h 69% 0.0 mm 791.0 W/m2
15:01 18.9 °C 12.9 °C 1019.5 hPa East 6.4 km/h 16.1 km/h 68% 0.0 mm 788.0 W/m2
15:06 18.7 °C 12.4 °C 1019.5 hPa NE 6.4 km/h 14.5 km/h 67% 0.0 mm 779.0 W/m2
15:11 18.8 °C 12.8 °C 1019.5 hPa NE 4.7 km/h 9.7 km/h 68% 0.0 mm 770.0 W/m2
15:16 18.9 °C 13.1 °C 1019.5 hPa ESE 3.2 km/h 12.9 km/h 69% 0.0 mm 770.0 W/m2
15:21 19.5 °C 13.7 °C 1019.5 hPa NE 4.7 km/h 9.7 km/h 69% 0.0 mm 758.0 W/m2
15:26 19.3 °C 13.0 °C 1019.5 hPa ENE 6.4 km/h 11.3 km/h 67% 0.0 mm 749.0 W/m2
15:32 18.9 °C 12.6 °C 1019.5 hPa East 11.1 km/h 14.5 km/h 67% 0.0 mm 742.0 W/m2
15:37 18.9 °C 12.9 °C 1019.5 hPa East 3.2 km/h 6.4 km/h 68% 0.0 mm 735.0 W/m2
15:42 19.9 °C 13.4 °C 1019.5 hPa SE 3.2 km/h 6.4 km/h 66% 0.0 mm 722.0 W/m2
15:47 19.6 °C 13.3 °C 1019.9 hPa SE 1.4 km/h 8.0 km/h 67% 0.0 mm 714.0 W/m2
15:52 19.6 °C 13.3 °C 1019.9 hPa NNE 6.4 km/h 11.3 km/h 67% 0.0 mm 700.0 W/m2
15:57 19.7 °C 13.2 °C 1019.9 hPa ENE 1.4 km/h 9.7 km/h 66% 0.0 mm 693.0 W/m2
16:02 19.9 °C 13.1 °C 1019.5 hPa ENE 4.7 km/h 12.9 km/h 65% 0.0 mm 687.0 W/m2
16:07 19.6 °C 12.6 °C 1019.5 hPa NE 7.9 km/h 11.3 km/h 64% 0.0 mm 679.0 W/m2
16:12 20.0 °C 13.2 °C 1019.5 hPa East 3.2 km/h 12.9 km/h 65% 0.0 mm 664.0 W/m2
16:17 19.8 °C 13.0 °C 1019.5 hPa ESE 3.2 km/h 12.9 km/h 65% 0.0 mm 656.0 W/m2
16:23 19.8 °C 13.5 °C 1019.5 hPa ENE 1.4 km/h 9.7 km/h 67% 0.0 mm 649.0 W/m2
Westerhope, Newcastle upon Tyne, UK
Compliments of Weather Underground - 4 mb